sensor_id;sensor_type;location;lat;lon;timestamp;P1;durP1;ratioP1;P2;durP2;ratioP2
75090;SDS011;63674;48.048;8.306;2024-03-02T00:01:55;9.13;;;3.90;;
75090;SDS011;63674;48.048;8.306;2024-03-02T00:04:24;8.93;;;3.97;;
75090;SDS011;63674;48.048;8.306;2024-03-02T00:06:53;10.02;;;4.25;;
75090;SDS011;63674;48.048;8.306;2024-03-02T00:09:22;8.50;;;3.25;;
75090;SDS011;63674;48.048;8.306;2024-03-02T00:11:51;9.38;;;4.38;;
75090;SDS011;63674;48.048;8.306;2024-03-02T00:14:20;10.98;;;5.15;;
75090;SDS011;63674;48.048;8.306;2024-03-02T00:16:52;10.65;;;4.18;;
75090;SDS011;63674;48.048;8.306;2024-03-02T00:19:22;10.00;;;4.47;;
75090;SDS011;63674;48.048;8.306;2024-03-02T00:21:51;10.48;;;4.30;;
75090;SDS011;63674;48.048;8.306;2024-03-02T00:24:20;10.13;;;4.80;;
75090;SDS011;63674;48.048;8.306;2024-03-02T00:27:00;10.35;;;4.15;;
75090;SDS011;63674;48.048;8.306;2024-03-02T00:29:31;8.90;;;4.00;;
75090;SDS011;63674;48.048;8.306;2024-03-02T00:32:01;8.05;;;3.65;;
75090;SDS011;63674;48.048;8.306;2024-03-02T00:34:30;8.90;;;4.13;;
75090;SDS011;63674;48.048;8.306;2024-03-02T00:36:59;10.75;;;4.00;;
75090;SDS011;63674;48.048;8.306;2024-03-02T00:39:27;8.30;;;3.40;;
75090;SDS011;63674;48.048;8.306;2024-03-02T00:41:56;7.80;;;3.22;;
75090;SDS011;63674;48.048;8.306;2024-03-02T00:44:25;8.85;;;3.40;;
75090;SDS011;63674;48.048;8.306;2024-03-02T00:46:57;9.45;;;3.70;;
75090;SDS011;63674;48.048;8.306;2024-03-02T00:49:28;8.75;;;4.07;;
75090;SDS011;63674;48.048;8.306;2024-03-02T00:51:57;8.90;;;3.83;;
75090;SDS011;63674;48.048;8.306;2024-03-02T00:54:26;8.27;;;3.40;;
75090;SDS011;63674;48.048;8.306;2024-03-02T00:56:55;7.90;;;3.43;;
75090;SDS011;63674;48.048;8.306;2024-03-02T00:59:25;6.95;;;2.78;;
75090;SDS011;63674;48.048;8.306;2024-03-02T01:01:54;9.90;;;3.30;;
75090;SDS011;63674;48.048;8.306;2024-03-02T01:04:22;13.57;;;6.10;;
75090;SDS011;63674;48.048;8.306;2024-03-02T01:06:52;10.50;;;5.07;;
75090;SDS011;63674;48.048;8.306;2024-03-02T01:09:21;10.50;;;4.55;;
75090;SDS011;63674;48.048;8.306;2024-03-02T01:11:50;11.80;;;4.80;;
75090;SDS011;63674;48.048;8.306;2024-03-02T01:14:18;10.25;;;4.60;;
75090;SDS011;63674;48.048;8.306;2024-03-02T01:16:47;11.02;;;4.68;;
75090;SDS011;63674;48.048;8.306;2024-03-02T01:19:15;11.50;;;4.97;;
75090;SDS011;63674;48.048;8.306;2024-03-02T01:21:45;10.52;;;4.90;;
75090;SDS011;63674;48.048;8.306;2024-03-02T01:24:15;9.77;;;4.57;;
75090;SDS011;63674;48.048;8.306;2024-03-02T01:26:43;10.27;;;5.03;;
75090;SDS011;63674;48.048;8.306;2024-03-02T01:29:12;9.13;;;4.25;;
75090;SDS011;63674;48.048;8.306;2024-03-02T01:31:40;13.60;;;5.35;;
75090;SDS011;63674;48.048;8.306;2024-03-02T01:34:09;10.65;;;4.50;;
75090;SDS011;63674;48.048;8.306;2024-03-02T01:36:39;10.43;;;4.68;;
75090;SDS011;63674;48.048;8.306;2024-03-02T01:39:07;10.15;;;4.30;;
75090;SDS011;63674;48.048;8.306;2024-03-02T01:41:38;10.20;;;4.20;;
75090;SDS011;63674;48.048;8.306;2024-03-02T01:44:06;11.07;;;4.80;;
75090;SDS011;63674;48.048;8.306;2024-03-02T01:46:35;12.82;;;4.93;;
75090;SDS011;63674;48.048;8.306;2024-03-02T01:49:04;13.63;;;4.75;;
75090;SDS011;63674;48.048;8.306;2024-03-02T01:51:33;11.63;;;5.28;;
75090;SDS011;63674;48.048;8.306;2024-03-02T01:54:01;12.82;;;4.82;;
75090;SDS011;63674;48.048;8.306;2024-03-02T01:56:30;11.98;;;4.53;;
75090;SDS011;63674;48.048;8.306;2024-03-02T01:59:00;11.60;;;5.30;;
75090;SDS011;63674;48.048;8.306;2024-03-02T02:01:28;12.18;;;4.28;;
75090;SDS011;63674;48.048;8.306;2024-03-02T02:03:57;11.90;;;4.78;;
75090;SDS011;63674;48.048;8.306;2024-03-02T02:06:27;10.75;;;4.18;;
75090;SDS011;63674;48.048;8.306;2024-03-02T02:08:56;11.43;;;4.25;;
75090;SDS011;63674;48.048;8.306;2024-03-02T02:11:24;9.85;;;4.07;;
75090;SDS011;63674;48.048;8.306;2024-03-02T02:13:53;8.88;;;3.90;;
75090;SDS011;63674;48.048;8.306;2024-03-02T02:16:24;9.65;;;3.85;;
75090;SDS011;63674;48.048;8.306;2024-03-02T02:18:52;10.10;;;4.07;;
75090;SDS011;63674;48.048;8.306;2024-03-02T02:21:23;9.60;;;4.18;;
75090;SDS011;63674;48.048;8.306;2024-03-02T02:23:53;8.85;;;3.58;;
75090;SDS011;63674;48.048;8.306;2024-03-02T02:26:22;7.97;;;3.13;;
75090;SDS011;63674;48.048;8.306;2024-03-02T02:29:09;9.25;;;3.88;;
75090;SDS011;63674;48.048;8.306;2024-03-02T02:31:56;8.25;;;3.22;;
75090;SDS011;63674;48.048;8.306;2024-03-02T02:34:43;8.77;;;3.58;;
75090;SDS011;63674;48.048;8.306;2024-03-02T02:37:32;10.13;;;4.05;;
75090;SDS011;63674;48.048;8.306;2024-03-02T02:40:19;9.10;;;3.33;;
75090;SDS011;63674;48.048;8.306;2024-03-02T02:43:07;8.13;;;3.38;;
75090;SDS011;63674;48.048;8.306;2024-03-02T02:45:54;10.82;;;3.65;;
75090;SDS011;63674;48.048;8.306;2024-03-02T02:48:41;9.10;;;3.63;;
75090;SDS011;63674;48.048;8.306;2024-03-02T02:51:29;7.03;;;3.10;;
75090;SDS011;63674;48.048;8.306;2024-03-02T02:54:17;10.63;;;4.00;;
75090;SDS011;63674;48.048;8.306;2024-03-02T02:57:04;10.18;;;3.85;;
75090;SDS011;63674;48.048;8.306;2024-03-02T02:59:51;9.90;;;3.45;;
75090;SDS011;63674;48.048;8.306;2024-03-02T03:02:38;9.00;;;3.90;;
75090;SDS011;63674;48.048;8.306;2024-03-02T03:05:27;9.52;;;3.78;;
75090;SDS011;63674;48.048;8.306;2024-03-02T03:08:15;9.35;;;3.70;;
75090;SDS011;63674;48.048;8.306;2024-03-02T03:11:04;9.35;;;3.13;;
75090;SDS011;63674;48.048;8.306;2024-03-02T03:13:51;7.72;;;3.17;;
75090;SDS011;63674;48.048;8.306;2024-03-02T03:16:40;9.63;;;3.90;;
75090;SDS011;63674;48.048;8.306;2024-03-02T03:19:27;9.43;;;3.55;;
75090;SDS011;63674;48.048;8.306;2024-03-02T03:22:14;9.05;;;3.58;;
75090;SDS011;63674;48.048;8.306;2024-03-02T03:25:01;10.77;;;4.07;;
75090;SDS011;63674;48.048;8.306;2024-03-02T03:27:51;10.40;;;4.35;;
75090;SDS011;63674;48.048;8.306;2024-03-02T03:30:38;15.93;;;4.57;;
75090;SDS011;63674;48.048;8.306;2024-03-02T03:33:26;21.90;;;4.60;;
75090;SDS011;63674;48.048;8.306;2024-03-02T03:36:13;39.40;;;5.32;;
75090;SDS011;63674;48.048;8.306;2024-03-02T03:39:00;11.85;;;4.13;;
75090;SDS011;63674;48.048;8.306;2024-03-02T03:41:48;19.42;;;4.10;;
75090;SDS011;63674;48.048;8.306;2024-03-02T03:44:18;64.30;;;5.93;;
75090;SDS011;63674;48.048;8.306;2024-03-02T03:46:47;32.58;;;4.93;;
75090;SDS011;63674;48.048;8.306;2024-03-02T03:49:16;55.05;;;5.47;;
75090;SDS011;63674;48.048;8.306;2024-03-02T03:51:44;25.80;;;4.72;;
75090;SDS011;63674;48.048;8.306;2024-03-02T03:54:13;66.05;;;5.28;;
75090;SDS011;63674;48.048;8.306;2024-03-02T03:56:42;27.73;;;5.68;;
75090;SDS011;63674;48.048;8.306;2024-03-02T03:59:10;39.47;;;4.80;;
75090;SDS011;63674;48.048;8.306;2024-03-02T04:01:40;10.43;;;3.67;;
75090;SDS011;63674;48.048;8.306;2024-03-02T04:04:09;33.47;;;4.82;;
75090;SDS011;63674;48.048;8.306;2024-03-02T04:06:38;26.70;;;4.60;;
75090;SDS011;63674;48.048;8.306;2024-03-02T04:09:06;17.42;;;3.67;;
75090;SDS011;63674;48.048;8.306;2024-03-02T04:11:35;18.75;;;3.67;;
75090;SDS011;63674;48.048;8.306;2024-03-02T04:14:03;16.75;;;3.72;;
75090;SDS011;63674;48.048;8.306;2024-03-02T04:16:32;11.30;;;3.70;;
75090;SDS011;63674;48.048;8.306;2024-03-02T04:19:02;28.95;;;4.57;;
75090;SDS011;63674;48.048;8.306;2024-03-02T04:21:31;111.97;;;6.10;;
75090;SDS011;63674;48.048;8.306;2024-03-02T04:24:00;32.23;;;4.60;;
75090;SDS011;63674;48.048;8.306;2024-03-02T04:26:28;50.47;;;5.18;;
75090;SDS011;63674;48.048;8.306;2024-03-02T04:28:56;60.42;;;5.20;;
75090;SDS011;63674;48.048;8.306;2024-03-02T04:31:25;75.72;;;5.75;;
75090;SDS011;63674;48.048;8.306;2024-03-02T04:33:53;75.07;;;5.85;;
75090;SDS011;63674;48.048;8.306;2024-03-02T04:36:24;36.38;;;3.80;;
75090;SDS011;63674;48.048;8.306;2024-03-02T04:38:52;11.98;;;4.43;;
75090;SDS011;63674;48.048;8.306;2024-03-02T04:41:21;13.02;;;4.35;;
75090;SDS011;63674;48.048;8.306;2024-03-02T04:43:49;16.92;;;4.18;;
75090;SDS011;63674;48.048;8.306;2024-03-02T04:46:18;11.27;;;4.38;;
75090;SDS011;63674;48.048;8.306;2024-03-02T04:48:46;13.25;;;4.30;;
75090;SDS011;63674;48.048;8.306;2024-03-02T04:51:21;10.10;;;4.22;;
75090;SDS011;63674;48.048;8.306;2024-03-02T04:53:51;11.55;;;4.00;;
75090;SDS011;63674;48.048;8.306;2024-03-02T04:56:19;8.82;;;3.28;;
75090;SDS011;63674;48.048;8.306;2024-03-02T04:59:06;10.30;;;4.25;;
75090;SDS011;63674;48.048;8.306;2024-03-02T05:01:35;11.48;;;3.88;;
75090;SDS011;63674;48.048;8.306;2024-03-02T05:04:03;9.77;;;4.00;;
75090;SDS011;63674;48.048;8.306;2024-03-02T05:06:33;11.57;;;4.05;;
75090;SDS011;63674;48.048;8.306;2024-03-02T05:09:02;10.07;;;4.05;;
75090;SDS011;63674;48.048;8.306;2024-03-02T05:11:30;8.82;;;3.50;;
75090;SDS011;63674;48.048;8.306;2024-03-02T05:14:19;9.93;;;4.20;;
75090;SDS011;63674;48.048;8.306;2024-03-02T05:16:48;9.32;;;3.78;;
75090;SDS011;63674;48.048;8.306;2024-03-02T05:19:16;9.20;;;3.75;;
75090;SDS011;63674;48.048;8.306;2024-03-02T05:21:45;15.38;;;3.75;;
75090;SDS011;63674;48.048;8.306;2024-03-02T05:24:13;61.38;;;4.35;;
75090;SDS011;63674;48.048;8.306;2024-03-02T05:26:42;112.53;;;5.63;;
75090;SDS011;63674;48.048;8.306;2024-03-02T05:29:11;117.70;;;6.07;;
75090;SDS011;63674;48.048;8.306;2024-03-02T05:31:39;43.00;;;5.00;;
75090;SDS011;63674;48.048;8.306;2024-03-02T05:34:08;77.18;;;4.68;;
75090;SDS011;63674;48.048;8.306;2024-03-02T05:36:36;49.60;;;4.72;;
75090;SDS011;63674;48.048;8.306;2024-03-02T05:39:07;24.33;;;4.03;;
75090;SDS011;63674;48.048;8.306;2024-03-02T05:41:36;125.10;;;7.15;;
75090;SDS011;63674;48.048;8.306;2024-03-02T05:44:05;24.02;;;4.43;;
75090;SDS011;63674;48.048;8.306;2024-03-02T05:46:34;12.18;;;3.40;;
75090;SDS011;63674;48.048;8.306;2024-03-02T05:49:05;22.60;;;3.45;;
75090;SDS011;63674;48.048;8.306;2024-03-02T05:51:34;14.97;;;3.63;;
75090;SDS011;63674;48.048;8.306;2024-03-02T05:54:03;12.75;;;3.25;;
75090;SDS011;63674;48.048;8.306;2024-03-02T05:56:33;26.77;;;3.03;;
75090;SDS011;63674;48.048;8.306;2024-03-02T05:59:01;73.75;;;4.07;;
75090;SDS011;63674;48.048;8.306;2024-03-02T06:01:39;43.88;;;4.22;;
75090;SDS011;63674;48.048;8.306;2024-03-02T06:04:08;23.17;;;3.47;;
75090;SDS011;63674;48.048;8.306;2024-03-02T06:06:37;14.85;;;3.40;;
75090;SDS011;63674;48.048;8.306;2024-03-02T06:09:06;21.67;;;3.63;;
75090;SDS011;63674;48.048;8.306;2024-03-02T06:11:40;10.45;;;3.10;;
75090;SDS011;63674;48.048;8.306;2024-03-02T06:14:08;8.68;;;3.10;;
75090;SDS011;63674;48.048;8.306;2024-03-02T06:16:37;10.18;;;4.00;;
75090;SDS011;63674;48.048;8.306;2024-03-02T06:19:05;8.25;;;3.30;;
75090;SDS011;63674;48.048;8.306;2024-03-02T06:21:34;8.32;;;3.15;;
75090;SDS011;63674;48.048;8.306;2024-03-02T06:24:03;7.15;;;2.85;;
75090;SDS011;63674;48.048;8.306;2024-03-02T06:26:32;8.48;;;3.00;;
75090;SDS011;63674;48.048;8.306;2024-03-02T06:29:02;7.67;;;3.20;;
75090;SDS011;63674;48.048;8.306;2024-03-02T06:31:30;7.88;;;2.97;;
75090;SDS011;63674;48.048;8.306;2024-03-02T06:33:59;16.33;;;4.03;;
75090;SDS011;63674;48.048;8.306;2024-03-02T06:36:30;41.15;;;5.38;;
75090;SDS011;63674;48.048;8.306;2024-03-02T06:38:58;11.77;;;4.10;;
75090;SDS011;63674;48.048;8.306;2024-03-02T06:41:27;8.77;;;3.40;;
75090;SDS011;63674;48.048;8.306;2024-03-02T06:43:56;9.73;;;3.75;;
75090;SDS011;63674;48.048;8.306;2024-03-02T06:46:28;17.83;;;4.75;;
75090;SDS011;63674;48.048;8.306;2024-03-02T06:48:56;22.73;;;5.20;;
75090;SDS011;63674;48.048;8.306;2024-03-02T06:51:25;10.43;;;3.83;;
75090;SDS011;63674;48.048;8.306;2024-03-02T06:53:54;23.98;;;5.97;;
75090;SDS011;63674;48.048;8.306;2024-03-02T06:56:22;22.42;;;5.80;;
75090;SDS011;63674;48.048;8.306;2024-03-02T06:58:51;10.95;;;4.68;;
75090;SDS011;63674;48.048;8.306;2024-03-02T07:01:20;8.90;;;4.00;;
75090;SDS011;63674;48.048;8.306;2024-03-02T07:03:52;12.30;;;4.88;;
75090;SDS011;63674;48.048;8.306;2024-03-02T07:06:21;14.70;;;5.20;;
75090;SDS011;63674;48.048;8.306;2024-03-02T07:08:49;14.90;;;5.45;;
75090;SDS011;63674;48.048;8.306;2024-03-02T07:11:18;15.32;;;5.15;;
75090;SDS011;63674;48.048;8.306;2024-03-02T07:13:46;12.23;;;4.88;;
75090;SDS011;63674;48.048;8.306;2024-03-02T07:16:15;10.25;;;4.15;;
75090;SDS011;63674;48.048;8.306;2024-03-02T07:18:57;9.77;;;3.72;;
75090;SDS011;63674;48.048;8.306;2024-03-02T07:21:28;11.65;;;4.88;;
75090;SDS011;63674;48.048;8.306;2024-03-02T07:23:56;13.63;;;5.75;;
75090;SDS011;63674;48.048;8.306;2024-03-02T07:26:25;10.20;;;4.07;;
75090;SDS011;63674;48.048;8.306;2024-03-02T07:28:57;10.30;;;3.83;;
75090;SDS011;63674;48.048;8.306;2024-03-02T07:31:26;10.00;;;4.30;;
75090;SDS011;63674;48.048;8.306;2024-03-02T07:33:54;11.05;;;4.03;;
75090;SDS011;63674;48.048;8.306;2024-03-02T07:36:24;9.77;;;3.95;;
75090;SDS011;63674;48.048;8.306;2024-03-02T07:38:53;7.47;;;2.65;;
75090;SDS011;63674;48.048;8.306;2024-03-02T07:41:21;9.68;;;3.90;;
75090;SDS011;63674;48.048;8.306;2024-03-02T07:43:49;7.50;;;2.35;;
75090;SDS011;63674;48.048;8.306;2024-03-02T07:46:18;9.02;;;3.38;;
75090;SDS011;63674;48.048;8.306;2024-03-02T07:48:47;8.88;;;3.20;;
75090;SDS011;63674;48.048;8.306;2024-03-02T07:51:18;8.10;;;2.75;;
75090;SDS011;63674;48.048;8.306;2024-03-02T07:53:48;10.77;;;3.88;;
75090;SDS011;63674;48.048;8.306;2024-03-02T07:56:17;9.40;;;3.50;;
75090;SDS011;63674;48.048;8.306;2024-03-02T07:58:48;9.77;;;3.88;;
75090;SDS011;63674;48.048;8.306;2024-03-02T08:01:17;11.25;;;4.15;;
75090;SDS011;63674;48.048;8.306;2024-03-02T08:03:46;10.60;;;3.63;;
75090;SDS011;63674;48.048;8.306;2024-03-02T08:06:17;12.48;;;4.50;;
75090;SDS011;63674;48.048;8.306;2024-03-02T08:08:49;12.68;;;4.97;;
75090;SDS011;63674;48.048;8.306;2024-03-02T08:11:17;12.05;;;4.85;;
75090;SDS011;63674;48.048;8.306;2024-03-02T08:13:46;15.25;;;5.30;;
75090;SDS011;63674;48.048;8.306;2024-03-02T08:16:14;12.57;;;4.88;;
75090;SDS011;63674;48.048;8.306;2024-03-02T08:18:45;11.10;;;5.00;;
75090;SDS011;63674;48.048;8.306;2024-03-02T08:21:14;14.02;;;5.40;;
75090;SDS011;63674;48.048;8.306;2024-03-02T08:23:43;12.98;;;4.40;;
75090;SDS011;63674;48.048;8.306;2024-03-02T08:26:13;11.20;;;4.32;;
75090;SDS011;63674;48.048;8.306;2024-03-02T08:28:42;13.07;;;4.95;;
75090;SDS011;63674;48.048;8.306;2024-03-02T08:31:11;12.27;;;4.78;;
75090;SDS011;63674;48.048;8.306;2024-03-02T08:33:39;10.73;;;4.32;;
75090;SDS011;63674;48.048;8.306;2024-03-02T08:36:08;9.95;;;4.30;;
75090;SDS011;63674;48.048;8.306;2024-03-02T08:38:37;9.75;;;4.00;;
75090;SDS011;63674;48.048;8.306;2024-03-02T08:41:06;10.10;;;4.15;;
75090;SDS011;63674;48.048;8.306;2024-03-02T08:43:36;9.90;;;4.10;;
75090;SDS011;63674;48.048;8.306;2024-03-02T08:46:04;11.45;;;4.53;;
75090;SDS011;63674;48.048;8.306;2024-03-02T08:48:33;10.30;;;4.40;;
75090;SDS011;63674;48.048;8.306;2024-03-02T08:51:02;9.05;;;3.78;;
75090;SDS011;63674;48.048;8.306;2024-03-02T08:53:34;11.25;;;3.90;;
75090;SDS011;63674;48.048;8.306;2024-03-02T08:56:02;9.55;;;3.80;;
75090;SDS011;63674;48.048;8.306;2024-03-02T08:58:32;9.60;;;3.85;;
75090;SDS011;63674;48.048;8.306;2024-03-02T09:01:03;10.38;;;3.47;;
75090;SDS011;63674;48.048;8.306;2024-03-02T09:03:33;9.93;;;4.10;;
75090;SDS011;63674;48.048;8.306;2024-03-02T09:06:02;7.68;;;3.40;;
75090;SDS011;63674;48.048;8.306;2024-03-02T09:08:31;7.95;;;3.53;;
75090;SDS011;63674;48.048;8.306;2024-03-02T09:11:01;7.65;;;3.00;;
75090;SDS011;63674;48.048;8.306;2024-03-02T09:13:31;8.45;;;2.97;;
75090;SDS011;63674;48.048;8.306;2024-03-02T09:15:59;7.60;;;3.03;;
75090;SDS011;63674;48.048;8.306;2024-03-02T09:18:30;7.43;;;3.05;;
75090;SDS011;63674;48.048;8.306;2024-03-02T09:20:59;6.97;;;2.75;;
75090;SDS011;63674;48.048;8.306;2024-03-02T09:23:27;6.85;;;2.75;;
75090;SDS011;63674;48.048;8.306;2024-03-02T09:25:56;6.18;;;2.40;;
75090;SDS011;63674;48.048;8.306;2024-03-02T09:28:24;6.20;;;2.50;;
75090;SDS011;63674;48.048;8.306;2024-03-02T09:30:53;6.35;;;2.65;;
75090;SDS011;63674;48.048;8.306;2024-03-02T09:33:26;6.60;;;2.90;;
75090;SDS011;63674;48.048;8.306;2024-03-02T09:35:56;7.13;;;2.20;;
75090;SDS011;63674;48.048;8.306;2024-03-02T09:38:24;5.55;;;1.95;;
75090;SDS011;63674;48.048;8.306;2024-03-02T09:40:53;5.53;;;1.83;;
75090;SDS011;63674;48.048;8.306;2024-03-02T09:43:22;5.18;;;1.80;;
75090;SDS011;63674;48.048;8.306;2024-03-02T09:45:51;9.15;;;2.70;;
75090;SDS011;63674;48.048;8.306;2024-03-02T09:48:20;7.00;;;2.70;;
75090;SDS011;63674;48.048;8.306;2024-03-02T09:50:48;5.47;;;1.98;;
75090;SDS011;63674;48.048;8.306;2024-03-02T09:53:19;6.70;;;2.50;;
75090;SDS011;63674;48.048;8.306;2024-03-02T09:55:48;4.97;;;1.70;;
75090;SDS011;63674;48.048;8.306;2024-03-02T09:58:17;4.28;;;1.48;;
75090;SDS011;63674;48.048;8.306;2024-03-02T10:00:46;3.93;;;1.13;;
75090;SDS011;63674;48.048;8.306;2024-03-02T10:03:16;3.60;;;0.88;;
75090;SDS011;63674;48.048;8.306;2024-03-02T10:05:47;4.25;;;1.33;;
75090;SDS011;63674;48.048;8.306;2024-03-02T10:08:16;4.22;;;1.25;;
75090;SDS011;63674;48.048;8.306;2024-03-02T10:10:46;4.20;;;1.52;;
75090;SDS011;63674;48.048;8.306;2024-03-02T10:13:14;4.40;;;1.30;;
75090;SDS011;63674;48.048;8.306;2024-03-02T10:15:44;5.95;;;2.45;;
75090;SDS011;63674;48.048;8.306;2024-03-02T10:18:13;4.63;;;1.95;;
75090;SDS011;63674;48.048;8.306;2024-03-02T10:20:42;4.32;;;1.38;;
75090;SDS011;63674;48.048;8.306;2024-03-02T10:23:11;4.43;;;0.93;;
75090;SDS011;63674;48.048;8.306;2024-03-02T10:25:42;4.03;;;1.10;;
75090;SDS011;63674;48.048;8.306;2024-03-02T10:28:23;4.35;;;1.20;;
75090;SDS011;63674;48.048;8.306;2024-03-02T10:30:54;4.45;;;1.23;;
75090;SDS011;63674;48.048;8.306;2024-03-02T10:33:23;3.70;;;1.00;;
75090;SDS011;63674;48.048;8.306;2024-03-02T10:35:52;4.07;;;1.13;;
75090;SDS011;63674;48.048;8.306;2024-03-02T10:38:21;6.27;;;2.00;;
75090;SDS011;63674;48.048;8.306;2024-03-02T10:40:51;4.43;;;1.50;;
75090;SDS011;63674;48.048;8.306;2024-03-02T10:43:22;4.93;;;1.52;;
75090;SDS011;63674;48.048;8.306;2024-03-02T10:45:50;4.13;;;1.08;;
75090;SDS011;63674;48.048;8.306;2024-03-02T10:48:22;4.30;;;1.08;;
75090;SDS011;63674;48.048;8.306;2024-03-02T10:50:53;4.30;;;1.10;;
75090;SDS011;63674;48.048;8.306;2024-03-02T10:53:24;4.22;;;1.17;;
75090;SDS011;63674;48.048;8.306;2024-03-02T10:55:56;5.43;;;1.30;;
75090;SDS011;63674;48.048;8.306;2024-03-02T10:58:31;4.03;;;1.25;;
75090;SDS011;63674;48.048;8.306;2024-03-02T11:01:02;4.70;;;1.20;;
75090;SDS011;63674;48.048;8.306;2024-03-02T11:03:33;3.50;;;0.90;;
75090;SDS011;63674;48.048;8.306;2024-03-02T11:06:05;3.38;;;0.90;;
75090;SDS011;63674;48.048;8.306;2024-03-02T11:08:37;3.78;;;0.98;;
75090;SDS011;63674;48.048;8.306;2024-03-02T11:11:11;4.45;;;0.85;;
75090;SDS011;63674;48.048;8.306;2024-03-02T11:13:47;3.58;;;0.95;;
75090;SDS011;63674;48.048;8.306;2024-03-02T11:16:19;3.90;;;1.10;;
75090;SDS011;63674;48.048;8.306;2024-03-02T11:19:01;3.90;;;1.10;;
75090;SDS011;63674;48.048;8.306;2024-03-02T11:21:32;3.50;;;0.82;;
75090;SDS011;63674;48.048;8.306;2024-03-02T11:24:15;3.50;;;0.90;;
75090;SDS011;63674;48.048;8.306;2024-03-02T11:27:05;3.67;;;1.00;;
75090;SDS011;63674;48.048;8.306;2024-03-02T11:29:44;3.40;;;0.93;;
75090;SDS011;63674;48.048;8.306;2024-03-02T11:32:14;3.67;;;0.93;;
75090;SDS011;63674;48.048;8.306;2024-03-02T11:34:45;4.13;;;1.20;;
75090;SDS011;63674;48.048;8.306;2024-03-02T11:37:16;4.75;;;1.33;;
75090;SDS011;63674;48.048;8.306;2024-03-02T11:39:46;4.40;;;1.17;;
75090;SDS011;63674;48.048;8.306;2024-03-02T11:42:19;3.97;;;1.30;;
75090;SDS011;63674;48.048;8.306;2024-03-02T11:44:48;3.80;;;1.33;;
75090;SDS011;63674;48.048;8.306;2024-03-02T11:47:17;3.88;;;1.23;;
75090;SDS011;63674;48.048;8.306;2024-03-02T11:49:46;3.95;;;1.10;;
75090;SDS011;63674;48.048;8.306;2024-03-02T11:52:18;3.85;;;1.17;;
75090;SDS011;63674;48.048;8.306;2024-03-02T11:54:47;3.47;;;1.03;;
75090;SDS011;63674;48.048;8.306;2024-03-02T11:57:20;3.83;;;1.10;;
75090;SDS011;63674;48.048;8.306;2024-03-02T11:59:50;4.05;;;1.30;;
75090;SDS011;63674;48.048;8.306;2024-03-02T12:02:19;3.92;;;1.00;;
75090;SDS011;63674;48.048;8.306;2024-03-02T12:04:49;4.47;;;1.50;;
75090;SDS011;63674;48.048;8.306;2024-03-02T12:07:18;3.80;;;1.17;;
75090;SDS011;63674;48.048;8.306;2024-03-02T12:09:48;3.53;;;1.00;;
75090;SDS011;63674;48.048;8.306;2024-03-02T12:12:28;4.80;;;1.40;;
75090;SDS011;63674;48.048;8.306;2024-03-02T12:14:57;5.90;;;1.55;;
75090;SDS011;63674;48.048;8.306;2024-03-02T12:17:27;6.28;;;2.40;;
75090;SDS011;63674;48.048;8.306;2024-03-02T12:19:56;5.73;;;1.53;;
75090;SDS011;63674;48.048;8.306;2024-03-02T12:22:25;5.05;;;1.88;;
75090;SDS011;63674;48.048;8.306;2024-03-02T12:24:53;4.40;;;1.60;;
75090;SDS011;63674;48.048;8.306;2024-03-02T12:27:22;4.70;;;1.80;;
75090;SDS011;63674;48.048;8.306;2024-03-02T12:29:52;4.95;;;1.70;;
75090;SDS011;63674;48.048;8.306;2024-03-02T12:32:21;5.97;;;1.90;;
75090;SDS011;63674;48.048;8.306;2024-03-02T12:34:50;4.68;;;1.75;;
75090;SDS011;63674;48.048;8.306;2024-03-02T12:37:19;5.07;;;1.95;;
75090;SDS011;63674;48.048;8.306;2024-03-02T12:39:47;5.78;;;2.00;;
75090;SDS011;63674;48.048;8.306;2024-03-02T12:42:16;5.75;;;1.92;;
75090;SDS011;63674;48.048;8.306;2024-03-02T12:44:44;5.20;;;1.50;;
75090;SDS011;63674;48.048;8.306;2024-03-02T12:47:15;5.00;;;1.30;;
75090;SDS011;63674;48.048;8.306;2024-03-02T12:49:43;5.88;;;2.10;;
75090;SDS011;63674;48.048;8.306;2024-03-02T12:52:12;5.93;;;1.88;;
75090;SDS011;63674;48.048;8.306;2024-03-02T12:54:41;4.70;;;1.80;;
75090;SDS011;63674;48.048;8.306;2024-03-02T12:57:10;4.20;;;1.50;;
75090;SDS011;63674;48.048;8.306;2024-03-02T12:59:45;5.00;;;1.70;;
75090;SDS011;63674;48.048;8.306;2024-03-02T13:02:18;5.55;;;1.90;;
75090;SDS011;63674;48.048;8.306;2024-03-02T13:04:52;5.07;;;2.15;;
75090;SDS011;63674;48.048;8.306;2024-03-02T13:07:22;5.00;;;2.00;;
75090;SDS011;63674;48.048;8.306;2024-03-02T13:09:51;4.70;;;1.70;;
75090;SDS011;63674;48.048;8.306;2024-03-02T13:12:22;6.78;;;1.75;;
75090;SDS011;63674;48.048;8.306;2024-03-02T13:14:52;5.13;;;1.58;;
75090;SDS011;63674;48.048;8.306;2024-03-02T13:17:22;5.95;;;1.60;;
75090;SDS011;63674;48.048;8.306;2024-03-02T13:19:52;5.05;;;1.80;;
75090;SDS011;63674;48.048;8.306;2024-03-02T13:22:21;4.57;;;1.60;;
75090;SDS011;63674;48.048;8.306;2024-03-02T13:24:50;6.15;;;1.80;;
75090;SDS011;63674;48.048;8.306;2024-03-02T13:27:20;5.60;;;2.10;;
75090;SDS011;63674;48.048;8.306;2024-03-02T13:29:49;5.53;;;1.80;;
75090;SDS011;63674;48.048;8.306;2024-03-02T13:32:17;5.03;;;1.80;;
75090;SDS011;63674;48.048;8.306;2024-03-02T13:34:51;5.30;;;1.60;;
75090;SDS011;63674;48.048;8.306;2024-03-02T13:37:20;4.55;;;1.35;;
75090;SDS011;63674;48.048;8.306;2024-03-02T13:39:49;5.43;;;1.40;;
75090;SDS011;63674;48.048;8.306;2024-03-02T13:42:17;5.55;;;2.03;;
75090;SDS011;63674;48.048;8.306;2024-03-02T13:44:46;4.43;;;1.80;;
75090;SDS011;63674;48.048;8.306;2024-03-02T13:47:17;5.00;;;1.40;;
75090;SDS011;63674;48.048;8.306;2024-03-02T13:49:47;4.60;;;1.45;;
75090;SDS011;63674;48.048;8.306;2024-03-02T13:52:17;5.57;;;1.77;;
75090;SDS011;63674;48.048;8.306;2024-03-02T13:54:47;5.18;;;1.50;;
75090;SDS011;63674;48.048;8.306;2024-03-02T13:57:18;4.45;;;1.40;;
75090;SDS011;63674;48.048;8.306;2024-03-02T13:59:52;4.40;;;1.30;;
75090;SDS011;63674;48.048;8.306;2024-03-02T14:02:21;3.55;;;1.00;;
75090;SDS011;63674;48.048;8.306;2024-03-02T14:04:50;3.92;;;1.00;;
75090;SDS011;63674;48.048;8.306;2024-03-02T14:07:20;3.78;;;0.80;;
75090;SDS011;63674;48.048;8.306;2024-03-02T14:09:49;3.05;;;0.73;;
75090;SDS011;63674;48.048;8.306;2024-03-02T14:12:17;3.20;;;0.70;;
75090;SDS011;63674;48.048;8.306;2024-03-02T14:14:46;3.42;;;0.90;;
75090;SDS011;63674;48.048;8.306;2024-03-02T14:17:17;4.00;;;1.02;;
75090;SDS011;63674;48.048;8.306;2024-03-02T14:19:45;4.82;;;1.20;;
75090;SDS011;63674;48.048;8.306;2024-03-02T14:22:15;3.83;;;1.10;;
75090;SDS011;63674;48.048;8.306;2024-03-02T14:24:45;4.53;;;1.30;;
75090;SDS011;63674;48.048;8.306;2024-03-02T14:27:14;4.05;;;1.40;;
75090;SDS011;63674;48.048;8.306;2024-03-02T14:30:03;4.30;;;1.35;;
75090;SDS011;63674;48.048;8.306;2024-03-02T14:32:33;4.63;;;1.23;;
75090;SDS011;63674;48.048;8.306;2024-03-02T14:35:01;4.07;;;1.00;;
75090;SDS011;63674;48.048;8.306;2024-03-02T14:37:30;3.70;;;0.90;;
75090;SDS011;63674;48.048;8.306;2024-03-02T14:40:00;4.18;;;1.13;;
75090;SDS011;63674;48.048;8.306;2024-03-02T14:42:32;4.50;;;1.30;;
75090;SDS011;63674;48.048;8.306;2024-03-02T14:45:02;4.05;;;1.10;;
75090;SDS011;63674;48.048;8.306;2024-03-02T14:47:31;3.72;;;1.00;;
75090;SDS011;63674;48.048;8.306;2024-03-02T14:50:02;4.10;;;1.27;;
75090;SDS011;63674;48.048;8.306;2024-03-02T14:52:32;3.97;;;0.90;;
75090;SDS011;63674;48.048;8.306;2024-03-02T14:55:03;4.20;;;0.80;;
75090;SDS011;63674;48.048;8.306;2024-03-02T14:57:34;3.65;;;0.90;;
75090;SDS011;63674;48.048;8.306;2024-03-02T15:00:03;4.57;;;0.88;;
75090;SDS011;63674;48.048;8.306;2024-03-02T15:02:34;4.70;;;0.80;;
75090;SDS011;63674;48.048;8.306;2024-03-02T15:05:03;3.58;;;0.90;;
75090;SDS011;63674;48.048;8.306;2024-03-02T15:07:33;4.80;;;0.90;;